sensor_id;sensor_type;location;lat;lon;timestamp;P1;durP1;ratioP1;P2;durP2;ratioP2
18447;SDS011;9353;50.956;6.920;2022-10-26T00:01:15;4.47;;;2.07;;
18447;SDS011;9353;50.956;6.920;2022-10-26T00:03:42;2.20;;;2.03;;
18447;SDS011;9353;50.956;6.920;2022-10-26T00:06:11;2.13;;;1.60;;
18447;SDS011;9353;50.956;6.920;2022-10-26T00:08:38;4.40;;;1.60;;
18447;SDS011;9353;50.956;6.920;2022-10-26T00:11:06;2.20;;;1.73;;
18447;SDS011;9353;50.956;6.920;2022-10-26T00:13:33;2.27;;;1.70;;
18447;SDS011;9353;50.956;6.920;2022-10-26T00:16:02;1.57;;;1.47;;
18447;SDS011;9353;50.956;6.920;2022-10-26T00:18:33;3.57;;;1.57;;
18447;SDS011;9353;50.956;6.920;2022-10-26T00:21:01;5.77;;;1.67;;
18447;SDS011;9353;50.956;6.920;2022-10-26T00:23:29;1.37;;;1.27;;
18447;SDS011;9353;50.956;6.920;2022-10-26T00:25:56;2.73;;;1.47;;
18447;SDS011;9353;50.956;6.920;2022-10-26T00:28:23;2.00;;;1.40;;
18447;SDS011;9353;50.956;6.920;2022-10-26T00:30:50;2.63;;;2.23;;
18447;SDS011;9353;50.956;6.920;2022-10-26T00:33:19;2.07;;;1.90;;
18447;SDS011;9353;50.956;6.920;2022-10-26T00:35:46;1.60;;;1.50;;
18447;SDS011;9353;50.956;6.920;2022-10-26T00:38:13;2.67;;;1.43;;
18447;SDS011;9353;50.956;6.920;2022-10-26T00:40:40;2.33;;;1.50;;
18447;SDS011;9353;50.956;6.920;2022-10-26T00:43:09;2.00;;;1.77;;
18447;SDS011;9353;50.956;6.920;2022-10-26T00:45:40;1.90;;;1.50;;
18447;SDS011;9353;50.956;6.920;2022-10-26T00:48:09;2.47;;;1.40;;
18447;SDS011;9353;50.956;6.920;2022-10-26T00:50:40;1.67;;;1.57;;
18447;SDS011;9353;50.956;6.920;2022-10-26T00:53:08;3.53;;;1.60;;
18447;SDS011;9353;50.956;6.920;2022-10-26T00:55:36;2.30;;;1.50;;
18447;SDS011;9353;50.956;6.920;2022-10-26T00:58:05;1.30;;;1.20;;
18447;SDS011;9353;50.956;6.920;2022-10-26T01:00:32;1.93;;;1.40;;
18447;SDS011;9353;50.956;6.920;2022-10-26T01:03:00;3.17;;;1.40;;
18447;SDS011;9353;50.956;6.920;2022-10-26T01:05:30;1.90;;;1.70;;
18447;SDS011;9353;50.956;6.920;2022-10-26T01:07:59;2.20;;;1.40;;
18447;SDS011;9353;50.956;6.920;2022-10-26T01:10:26;3.43;;;1.67;;
18447;SDS011;9353;50.956;6.920;2022-10-26T01:12:54;1.40;;;1.30;;
18447;SDS011;9353;50.956;6.920;2022-10-26T01:15:22;3.07;;;1.30;;
18447;SDS011;9353;50.956;6.920;2022-10-26T01:17:52;3.93;;;2.20;;
18447;SDS011;9353;50.956;6.920;2022-10-26T01:20:25;4.43;;;1.50;;
18447;SDS011;9353;50.956;6.920;2022-10-26T01:22:56;2.37;;;1.50;;
18447;SDS011;9353;50.956;6.920;2022-10-26T01:25:29;6.30;;;1.97;;
18447;SDS011;9353;50.956;6.920;2022-10-26T01:28:01;2.60;;;1.60;;
18447;SDS011;9353;50.956;6.920;2022-10-26T01:30:33;3.33;;;1.90;;
18447;SDS011;9353;50.956;6.920;2022-10-26T01:33:05;1.87;;;1.63;;
18447;SDS011;9353;50.956;6.920;2022-10-26T01:35:37;1.67;;;1.40;;
18447;SDS011;9353;50.956;6.920;2022-10-26T01:38:06;2.60;;;1.67;;
18447;SDS011;9353;50.956;6.920;2022-10-26T01:40:37;5.97;;;1.80;;
18447;SDS011;9353;50.956;6.920;2022-10-26T01:43:06;5.67;;;1.57;;
18447;SDS011;9353;50.956;6.920;2022-10-26T01:45:37;1.43;;;1.33;;
18447;SDS011;9353;50.956;6.920;2022-10-26T01:48:05;2.13;;;1.67;;
18447;SDS011;9353;50.956;6.920;2022-10-26T01:50:34;2.03;;;1.70;;
18447;SDS011;9353;50.956;6.920;2022-10-26T01:53:01;1.70;;;1.60;;
18447;SDS011;9353;50.956;6.920;2022-10-26T01:55:37;2.00;;;1.63;;
18447;SDS011;9353;50.956;6.920;2022-10-26T01:58:07;3.23;;;1.67;;
18447;SDS011;9353;50.956;6.920;2022-10-26T02:00:41;1.57;;;1.30;;
18447;SDS011;9353;50.956;6.920;2022-10-26T02:03:11;2.53;;;1.80;;
18447;SDS011;9353;50.956;6.920;2022-10-26T02:05:45;3.60;;;1.53;;
18447;SDS011;9353;50.956;6.920;2022-10-26T02:08:18;1.67;;;1.57;;
18447;SDS011;9353;50.956;6.920;2022-10-26T02:10:49;3.03;;;1.20;;
18447;SDS011;9353;50.956;6.920;2022-10-26T02:13:20;1.53;;;1.43;;
18447;SDS011;9353;50.956;6.920;2022-10-26T02:15:53;2.93;;;1.60;;
18447;SDS011;9353;50.956;6.920;2022-10-26T02:18:25;3.53;;;1.70;;
18447;SDS011;9353;50.956;6.920;2022-10-26T02:20:57;1.70;;;1.60;;
18447;SDS011;9353;50.956;6.920;2022-10-26T02:23:25;2.13;;;1.53;;
18447;SDS011;9353;50.956;6.920;2022-10-26T02:25:54;2.90;;;1.90;;
18447;SDS011;9353;50.956;6.920;2022-10-26T02:28:23;2.80;;;1.70;;
18447;SDS011;9353;50.956;6.920;2022-10-26T02:30:53;3.43;;;1.80;;
18447;SDS011;9353;50.956;6.920;2022-10-26T02:33:22;4.20;;;2.07;;
18447;SDS011;9353;50.956;6.920;2022-10-26T02:35:50;2.83;;;1.77;;
18447;SDS011;9353;50.956;6.920;2022-10-26T02:38:18;2.77;;;1.63;;
18447;SDS011;9353;50.956;6.920;2022-10-26T02:40:46;2.33;;;1.67;;
18447;SDS011;9353;50.956;6.920;2022-10-26T02:43:15;3.00;;;1.40;;
18447;SDS011;9353;50.956;6.920;2022-10-26T02:45:46;2.50;;;1.77;;
18447;SDS011;9353;50.956;6.920;2022-10-26T02:48:16;2.40;;;1.63;;
18447;SDS011;9353;50.956;6.920;2022-10-26T02:50:46;1.53;;;1.43;;
18447;SDS011;9353;50.956;6.920;2022-10-26T02:53:17;4.60;;;1.43;;
18447;SDS011;9353;50.956;6.920;2022-10-26T02:55:49;2.47;;;1.83;;
18447;SDS011;9353;50.956;6.920;2022-10-26T02:58:18;2.20;;;1.80;;
18447;SDS011;9353;50.956;6.920;2022-10-26T03:00:46;3.67;;;1.93;;
18447;SDS011;9353;50.956;6.920;2022-10-26T03:03:13;2.43;;;1.60;;
18447;SDS011;9353;50.956;6.920;2022-10-26T03:05:42;2.03;;;1.60;;
18447;SDS011;9353;50.956;6.920;2022-10-26T03:08:09;3.70;;;1.60;;
18447;SDS011;9353;50.956;6.920;2022-10-26T03:10:38;3.67;;;2.00;;
18447;SDS011;9353;50.956;6.920;2022-10-26T03:13:06;2.53;;;1.57;;
18447;SDS011;9353;50.956;6.920;2022-10-26T03:15:33;4.00;;;1.80;;
18447;SDS011;9353;50.956;6.920;2022-10-26T03:18:00;1.90;;;1.60;;
18447;SDS011;9353;50.956;6.920;2022-10-26T03:20:27;2.50;;;1.50;;
18447;SDS011;9353;50.956;6.920;2022-10-26T03:22:55;3.80;;;1.50;;
18447;SDS011;9353;50.956;6.920;2022-10-26T03:25:22;3.37;;;1.60;;
18447;SDS011;9353;50.956;6.920;2022-10-26T03:27:54;2.20;;;2.00;;
18447;SDS011;9353;50.956;6.920;2022-10-26T03:30:22;1.33;;;1.30;;
18447;SDS011;9353;50.956;6.920;2022-10-26T03:32:49;3.47;;;1.50;;
18447;SDS011;9353;50.956;6.920;2022-10-26T03:35:16;6.00;;;1.83;;
18447;SDS011;9353;50.956;6.920;2022-10-26T03:37:43;1.90;;;1.80;;
18447;SDS011;9353;50.956;6.920;2022-10-26T03:40:12;3.07;;;1.40;;
18447;SDS011;9353;50.956;6.920;2022-10-26T03:42:39;5.87;;;1.67;;
18447;SDS011;9353;50.956;6.920;2022-10-26T03:45:06;2.03;;;1.37;;
18447;SDS011;9353;50.956;6.920;2022-10-26T03:47:34;3.70;;;2.50;;
18447;SDS011;9353;50.956;6.920;2022-10-26T03:50:06;4.60;;;1.90;;
18447;SDS011;9353;50.956;6.920;2022-10-26T03:52:33;1.50;;;1.40;;
18447;SDS011;9353;50.956;6.920;2022-10-26T03:55:00;2.93;;;1.60;;
18447;SDS011;9353;50.956;6.920;2022-10-26T03:57:28;1.73;;;1.63;;
18447;SDS011;9353;50.956;6.920;2022-10-26T03:59:55;1.70;;;1.40;;
18447;SDS011;9353;50.956;6.920;2022-10-26T04:02:22;2.40;;;1.67;;
18447;SDS011;9353;50.956;6.920;2022-10-26T04:04:50;1.70;;;1.60;;
18447;SDS011;9353;50.956;6.920;2022-10-26T04:07:17;2.77;;;1.60;;
18447;SDS011;9353;50.956;6.920;2022-10-26T04:09:44;4.57;;;2.03;;
18447;SDS011;9353;50.956;6.920;2022-10-26T04:12:11;2.93;;;1.60;;
18447;SDS011;9353;50.956;6.920;2022-10-26T04:14:39;2.60;;;2.10;;
18447;SDS011;9353;50.956;6.920;2022-10-26T04:17:06;1.83;;;1.50;;
18447;SDS011;9353;50.956;6.920;2022-10-26T04:19:33;1.83;;;1.60;;
18447;SDS011;9353;50.956;6.920;2022-10-26T04:22:00;1.90;;;1.80;;
18447;SDS011;9353;50.956;6.920;2022-10-26T04:24:27;4.63;;;1.63;;
18447;SDS011;9353;50.956;6.920;2022-10-26T04:26:55;1.97;;;1.83;;
18447;SDS011;9353;50.956;6.920;2022-10-26T04:29:22;1.47;;;1.37;;
18447;SDS011;9353;50.956;6.920;2022-10-26T04:31:50;2.03;;;1.83;;
18447;SDS011;9353;50.956;6.920;2022-10-26T04:34:17;2.70;;;1.77;;
18447;SDS011;9353;50.956;6.920;2022-10-26T04:36:44;1.90;;;1.40;;
18447;SDS011;9353;50.956;6.920;2022-10-26T04:39:11;3.10;;;1.67;;
18447;SDS011;9353;50.956;6.920;2022-10-26T04:41:38;2.50;;;1.60;;
18447;SDS011;9353;50.956;6.920;2022-10-26T04:44:05;2.23;;;1.80;;
18447;SDS011;9353;50.956;6.920;2022-10-26T04:46:32;2.33;;;1.50;;
18447;SDS011;9353;50.956;6.920;2022-10-26T04:49:01;2.27;;;1.70;;
18447;SDS011;9353;50.956;6.920;2022-10-26T04:51:28;1.53;;;1.43;;
18447;SDS011;9353;50.956;6.920;2022-10-26T04:53:55;2.17;;;1.80;;
18447;SDS011;9353;50.956;6.920;2022-10-26T04:56:22;3.17;;;1.80;;
18447;SDS011;9353;50.956;6.920;2022-10-26T04:58:52;3.47;;;1.70;;
18447;SDS011;9353;50.956;6.920;2022-10-26T05:01:19;3.47;;;2.20;;
18447;SDS011;9353;50.956;6.920;2022-10-26T05:03:47;2.80;;;1.83;;
18447;SDS011;9353;50.956;6.920;2022-10-26T05:06:16;2.70;;;1.80;;
18447;SDS011;9353;50.956;6.920;2022-10-26T05:08:43;1.90;;;1.80;;
18447;SDS011;9353;50.956;6.920;2022-10-26T05:11:11;4.57;;;1.77;;
18447;SDS011;9353;50.956;6.920;2022-10-26T05:13:38;2.00;;;1.73;;
18447;SDS011;9353;50.956;6.920;2022-10-26T05:16:05;1.93;;;1.70;;
18447;SDS011;9353;50.956;6.920;2022-10-26T05:18:32;1.90;;;1.80;;
18447;SDS011;9353;50.956;6.920;2022-10-26T05:20:59;2.60;;;2.00;;
18447;SDS011;9353;50.956;6.920;2022-10-26T05:23:28;1.97;;;1.80;;
18447;SDS011;9353;50.956;6.920;2022-10-26T05:25:55;1.53;;;1.50;;
18447;SDS011;9353;50.956;6.920;2022-10-26T05:28:22;2.23;;;1.87;;
18447;SDS011;9353;50.956;6.920;2022-10-26T05:30:49;2.63;;;2.17;;
18447;SDS011;9353;50.956;6.920;2022-10-26T05:33:16;2.20;;;1.97;;
18447;SDS011;9353;50.956;6.920;2022-10-26T05:35:43;2.67;;;1.30;;
18447;SDS011;9353;50.956;6.920;2022-10-26T05:38:11;2.17;;;2.07;;
18447;SDS011;9353;50.956;6.920;2022-10-26T05:40:46;2.03;;;1.53;;
18447;SDS011;9353;50.956;6.920;2022-10-26T05:43:13;2.90;;;2.00;;
18447;SDS011;9353;50.956;6.920;2022-10-26T05:45:40;2.23;;;1.60;;
18447;SDS011;9353;50.956;6.920;2022-10-26T05:48:07;1.90;;;1.60;;
18447;SDS011;9353;50.956;6.920;2022-10-26T05:50:34;4.03;;;1.40;;
18447;SDS011;9353;50.956;6.920;2022-10-26T05:53:02;2.30;;;1.80;;
18447;SDS011;9353;50.956;6.920;2022-10-26T05:55:29;2.93;;;1.73;;
18447;SDS011;9353;50.956;6.920;2022-10-26T05:57:58;3.50;;;1.53;;
18447;SDS011;9353;50.956;6.920;2022-10-26T06:00:26;5.20;;;1.50;;
18447;SDS011;9353;50.956;6.920;2022-10-26T06:03:00;1.83;;;1.73;;
18447;SDS011;9353;50.956;6.920;2022-10-26T06:05:32;2.37;;;1.73;;
18447;SDS011;9353;50.956;6.920;2022-10-26T06:08:00;1.63;;;1.53;;
18447;SDS011;9353;50.956;6.920;2022-10-26T06:10:27;4.03;;;2.47;;
18447;SDS011;9353;50.956;6.920;2022-10-26T06:12:55;1.83;;;1.63;;
18447;SDS011;9353;50.956;6.920;2022-10-26T06:15:23;3.17;;;1.80;;
18447;SDS011;9353;50.956;6.920;2022-10-26T06:17:54;2.90;;;1.40;;
18447;SDS011;9353;50.956;6.920;2022-10-26T06:20:28;4.77;;;1.87;;
18447;SDS011;9353;50.956;6.920;2022-10-26T06:23:00;3.83;;;1.83;;
18447;SDS011;9353;50.956;6.920;2022-10-26T06:25:33;3.30;;;1.90;;
18447;SDS011;9353;50.956;6.920;2022-10-26T06:28:11;2.07;;;1.80;;
18447;SDS011;9353;50.956;6.920;2022-10-26T06:30:42;2.30;;;2.10;;
18447;SDS011;9353;50.956;6.920;2022-10-26T06:33:09;2.03;;;1.93;;
18447;SDS011;9353;50.956;6.920;2022-10-26T06:35:40;1.60;;;1.50;;
18447;SDS011;9353;50.956;6.920;2022-10-26T06:38:11;2.23;;;1.60;;
18447;SDS011;9353;50.956;6.920;2022-10-26T06:40:40;5.10;;;2.10;;
18447;SDS011;9353;50.956;6.920;2022-10-26T06:43:08;4.10;;;1.70;;
18447;SDS011;9353;50.956;6.920;2022-10-26T06:45:37;3.37;;;1.80;;
18447;SDS011;9353;50.956;6.920;2022-10-26T06:48:07;2.20;;;2.10;;
18447;SDS011;9353;50.956;6.920;2022-10-26T06:50:36;3.63;;;2.00;;
18447;SDS011;9353;50.956;6.920;2022-10-26T06:53:10;2.47;;;2.27;;
18447;SDS011;9353;50.956;6.920;2022-10-26T06:55:43;5.00;;;2.30;;
18447;SDS011;9353;50.956;6.920;2022-10-26T06:58:12;3.27;;;2.20;;
18447;SDS011;9353;50.956;6.920;2022-10-26T07:00:41;3.00;;;2.10;;
18447;SDS011;9353;50.956;6.920;2022-10-26T07:03:10;2.00;;;1.63;;
18447;SDS011;9353;50.956;6.920;2022-10-26T07:05:37;2.00;;;1.80;;
18447;SDS011;9353;50.956;6.920;2022-10-26T07:08:04;2.23;;;2.10;;
18447;SDS011;9353;50.956;6.920;2022-10-26T07:10:31;5.20;;;2.03;;
18447;SDS011;9353;50.956;6.920;2022-10-26T07:13:02;2.53;;;2.00;;
18447;SDS011;9353;50.956;6.920;2022-10-26T07:15:30;2.63;;;1.60;;
18447;SDS011;9353;50.956;6.920;2022-10-26T07:17:57;2.40;;;2.20;;
18447;SDS011;9353;50.956;6.920;2022-10-26T07:20:25;2.60;;;2.10;;
18447;SDS011;9353;50.956;6.920;2022-10-26T07:22:53;2.03;;;1.80;;
18447;SDS011;9353;50.956;6.920;2022-10-26T07:25:20;2.80;;;2.60;;
18447;SDS011;9353;50.956;6.920;2022-10-26T07:27:48;5.73;;;2.50;;
18447;SDS011;9353;50.956;6.920;2022-10-26T07:30:15;2.00;;;1.90;;
18447;SDS011;9353;50.956;6.920;2022-10-26T07:32:42;4.30;;;2.33;;
18447;SDS011;9353;50.956;6.920;2022-10-26T07:35:10;3.43;;;2.67;;
18447;SDS011;9353;50.956;6.920;2022-10-26T07:37:38;2.60;;;2.40;;
18447;SDS011;9353;50.956;6.920;2022-10-26T07:40:06;2.33;;;2.13;;
18447;SDS011;9353;50.956;6.920;2022-10-26T07:42:33;2.50;;;2.30;;
18447;SDS011;9353;50.956;6.920;2022-10-26T07:45:01;2.90;;;2.67;;
18447;SDS011;9353;50.956;6.920;2022-10-26T07:47:28;4.30;;;2.17;;
18447;SDS011;9353;50.956;6.920;2022-10-26T07:49:55;6.57;;;2.80;;
18447;SDS011;9353;50.956;6.920;2022-10-26T07:52:22;3.30;;;2.20;;
18447;SDS011;9353;50.956;6.920;2022-10-26T07:54:51;2.90;;;2.63;;
18447;SDS011;9353;50.956;6.920;2022-10-26T07:57:18;2.60;;;2.40;;
18447;SDS011;9353;50.956;6.920;2022-10-26T07:59:45;2.37;;;2.17;;
18447;SDS011;9353;50.956;6.920;2022-10-26T08:02:12;6.70;;;2.20;;
18447;SDS011;9353;50.956;6.920;2022-10-26T08:04:39;4.20;;;2.33;;
18447;SDS011;9353;50.956;6.920;2022-10-26T08:07:07;3.80;;;2.60;;
18447;SDS011;9353;50.956;6.920;2022-10-26T08:09:35;4.50;;;2.57;;
18447;SDS011;9353;50.956;6.920;2022-10-26T08:12:03;5.07;;;2.43;;
18447;SDS011;9353;50.956;6.920;2022-10-26T08:14:30;3.27;;;2.23;;
18447;SDS011;9353;50.956;6.920;2022-10-26T08:16:57;2.87;;;2.47;;
18447;SDS011;9353;50.956;6.920;2022-10-26T08:19:24;3.27;;;2.47;;
18447;SDS011;9353;50.956;6.920;2022-10-26T08:21:52;4.87;;;2.93;;
18447;SDS011;9353;50.956;6.920;2022-10-26T08:24:19;2.60;;;2.40;;
18447;SDS011;9353;50.956;6.920;2022-10-26T08:26:46;3.00;;;2.70;;
18447;SDS011;9353;50.956;6.920;2022-10-26T08:29:14;3.63;;;2.60;;
18447;SDS011;9353;50.956;6.920;2022-10-26T08:31:41;2.73;;;2.53;;
18447;SDS011;9353;50.956;6.920;2022-10-26T08:34:09;4.33;;;2.60;;
18447;SDS011;9353;50.956;6.920;2022-10-26T08:36:36;4.03;;;2.50;;
18447;SDS011;9353;50.956;6.920;2022-10-26T08:39:03;3.13;;;2.53;;
18447;SDS011;9353;50.956;6.920;2022-10-26T08:41:32;3.83;;;2.83;;
18447;SDS011;9353;50.956;6.920;2022-10-26T08:44:00;2.97;;;2.50;;
18447;SDS011;9353;50.956;6.920;2022-10-26T08:46:31;3.87;;;2.90;;
18447;SDS011;9353;50.956;6.920;2022-10-26T08:49:02;2.97;;;2.63;;
18447;SDS011;9353;50.956;6.920;2022-10-26T08:51:29;4.93;;;2.87;;
18447;SDS011;9353;50.956;6.920;2022-10-26T08:53:59;3.10;;;2.80;;
18447;SDS011;9353;50.956;6.920;2022-10-26T08:56:31;5.63;;;2.70;;
18447;SDS011;9353;50.956;6.920;2022-10-26T08:59:02;3.63;;;2.40;;
18447;SDS011;9353;50.956;6.920;2022-10-26T09:01:32;4.73;;;2.60;;
18447;SDS011;9353;50.956;6.920;2022-10-26T09:04:00;8.17;;;2.97;;
18447;SDS011;9353;50.956;6.920;2022-10-26T09:06:29;4.73;;;2.40;;
18447;SDS011;9353;50.956;6.920;2022-10-26T09:09:02;4.17;;;2.50;;
18447;SDS011;9353;50.956;6.920;2022-10-26T09:11:41;3.93;;;2.63;;
18447;SDS011;9353;50.956;6.920;2022-10-26T09:14:12;2.73;;;2.53;;
18447;SDS011;9353;50.956;6.920;2022-10-26T09:16:48;4.43;;;2.27;;
18447;SDS011;9353;50.956;6.920;2022-10-26T09:19:30;4.60;;;2.73;;
18447;SDS011;9353;50.956;6.920;2022-10-26T09:22:01;2.40;;;2.10;;
18447;SDS011;9353;50.956;6.920;2022-10-26T09:24:29;3.87;;;2.07;;
18447;SDS011;9353;50.956;6.920;2022-10-26T09:26:57;2.53;;;2.10;;
18447;SDS011;9353;50.956;6.920;2022-10-26T09:29:28;3.63;;;2.40;;
18447;SDS011;9353;50.956;6.920;2022-10-26T09:31:58;2.83;;;1.97;;
18447;SDS011;9353;50.956;6.920;2022-10-26T09:34:27;2.63;;;2.43;;
18447;SDS011;9353;50.956;6.920;2022-10-26T09:36:55;4.30;;;2.10;;
18447;SDS011;9353;50.956;6.920;2022-10-26T09:39:24;8.90;;;2.43;;
18447;SDS011;9353;50.956;6.920;2022-10-26T09:41:55;2.70;;;2.30;;
18447;SDS011;9353;50.956;6.920;2022-10-26T09:44:24;6.30;;;2.53;;
18447;SDS011;9353;50.956;6.920;2022-10-26T09:46:54;2.40;;;2.00;;
18447;SDS011;9353;50.956;6.920;2022-10-26T09:49:25;2.90;;;2.03;;
18447;SDS011;9353;50.956;6.920;2022-10-26T09:51:55;4.03;;;2.30;;
18447;SDS011;9353;50.956;6.920;2022-10-26T09:54:22;5.53;;;2.20;;
18447;SDS011;9353;50.956;6.920;2022-10-26T09:56:50;2.47;;;1.80;;
18447;SDS011;9353;50.956;6.920;2022-10-26T09:59:18;4.77;;;2.13;;
18447;SDS011;9353;50.956;6.920;2022-10-26T10:01:47;2.60;;;2.30;;
18447;SDS011;9353;50.956;6.920;2022-10-26T10:04:17;2.10;;;2.00;;
18447;SDS011;9353;50.956;6.920;2022-10-26T10:06:46;4.17;;;2.20;;
18447;SDS011;9353;50.956;6.920;2022-10-26T10:09:14;2.03;;;1.90;;
18447;SDS011;9353;50.956;6.920;2022-10-26T10:11:42;2.47;;;1.73;;
18447;SDS011;9353;50.956;6.920;2022-10-26T10:14:12;2.10;;;1.90;;
18447;SDS011;9353;50.956;6.920;2022-10-26T10:16:47;3.00;;;1.90;;
18447;SDS011;9353;50.956;6.920;2022-10-26T10:19:19;2.50;;;2.10;;
18447;SDS011;9353;50.956;6.920;2022-10-26T10:21:48;5.20;;;2.17;;
18447;SDS011;9353;50.956;6.920;2022-10-26T10:24:21;3.03;;;2.03;;
18447;SDS011;9353;50.956;6.920;2022-10-26T10:26:54;2.77;;;2.57;;
18447;SDS011;9353;50.956;6.920;2022-10-26T10:29:23;4.10;;;3.57;;
18447;SDS011;9353;50.956;6.920;2022-10-26T10:31:54;2.27;;;2.10;;
18447;SDS011;9353;50.956;6.920;2022-10-26T10:34:21;7.70;;;1.90;;
18447;SDS011;9353;50.956;6.920;2022-10-26T10:36:50;4.50;;;2.00;;
18447;SDS011;9353;50.956;6.920;2022-10-26T10:39:30;2.80;;;2.27;;
18447;SDS011;9353;50.956;6.920;2022-10-26T10:41:59;3.03;;;2.03;;
18447;SDS011;9353;50.956;6.920;2022-10-26T10:44:27;2.20;;;2.00;;
18447;SDS011;9353;50.956;6.920;2022-10-26T10:46:58;6.13;;;2.20;;
18447;SDS011;9353;50.956;6.920;2022-10-26T10:49:26;2.47;;;2.10;;
18447;SDS011;9353;50.956;6.920;2022-10-26T10:51:55;2.27;;;1.87;;
18447;SDS011;9353;50.956;6.920;2022-10-26T10:54:23;2.60;;;2.13;;
18447;SDS011;9353;50.956;6.920;2022-10-26T10:56:52;3.13;;;2.07;;
18447;SDS011;9353;50.956;6.920;2022-10-26T10:59:27;2.57;;;2.17;;
18447;SDS011;9353;50.956;6.920;2022-10-26T11:01:59;3.63;;;2.30;;
18447;SDS011;9353;50.956;6.920;2022-10-26T11:04:44;2.53;;;2.33;;
18447;SDS011;9353;50.956;6.920;2022-10-26T11:07:16;2.43;;;2.17;;
18447;SDS011;9353;50.956;6.920;2022-10-26T11:09:44;2.83;;;2.57;;
18447;SDS011;9353;50.956;6.920;2022-10-26T11:12:13;7.87;;;2.50;;
18447;SDS011;9353;50.956;6.920;2022-10-26T11:14:42;3.70;;;2.07;;
18447;SDS011;9353;50.956;6.920;2022-10-26T11:17:12;2.77;;;1.63;;
18447;SDS011;9353;50.956;6.920;2022-10-26T11:19:41;1.60;;;1.50;;
18447;SDS011;9353;50.956;6.920;2022-10-26T11:22:09;2.30;;;1.73;;
18447;SDS011;9353;50.956;6.920;2022-10-26T11:24:41;4.23;;;1.57;;
18447;SDS011;9353;50.956;6.920;2022-10-26T11:27:11;4.10;;;1.70;;
18447;SDS011;9353;50.956;6.920;2022-10-26T11:29:42;2.27;;;2.13;;
18447;SDS011;9353;50.956;6.920;2022-10-26T11:32:12;1.00;;;1.00;;
18447;SDS011;9353;50.956;6.920;2022-10-26T11:34:43;1.75;;;1.45;;
18447;SDS011;9353;50.956;6.920;2022-10-26T11:37:12;1.40;;;1.30;;
18447;SDS011;9353;50.956;6.920;2022-10-26T11:39:43;2.25;;;1.25;;
18447;SDS011;9353;50.956;6.920;2022-10-26T11:42:17;3.63;;;1.00;;
18447;SDS011;9353;50.956;6.920;2022-10-26T11:44:47;1.48;;;1.38;;
18447;SDS011;9353;50.956;6.920;2022-10-26T11:47:16;1.70;;;1.60;;
18447;SDS011;9353;50.956;6.920;2022-10-26T11:49:45;1.07;;;0.97;;
18447;SDS011;9353;50.956;6.920;2022-10-26T11:52:14;1.05;;;0.98;;
18447;SDS011;9353;50.956;6.920;2022-10-26T11:54:46;0.90;;;0.90;;
18447;SDS011;9353;50.956;6.920;2022-10-26T11:57:16;2.22;;;1.20;;
18447;SDS011;9353;50.956;6.920;2022-10-26T11:59:44;3.25;;;0.93;;
18447;SDS011;9353;50.956;6.920;2022-10-26T12:02:13;1.27;;;0.80;;
18447;SDS011;9353;50.956;6.920;2022-10-26T12:04:41;4.80;;;1.20;;
18447;SDS011;9353;50.956;6.920;2022-10-26T12:07:10;6.90;;;1.30;;
18447;SDS011;9353;50.956;6.920;2022-10-26T12:09:39;1.13;;;0.63;;
18447;SDS011;9353;50.956;6.920;2022-10-26T12:12:10;0.77;;;0.77;;
18447;SDS011;9353;50.956;6.920;2022-10-26T12:14:41;1.67;;;0.95;;
18447;SDS011;9353;50.956;6.920;2022-10-26T12:17:09;0.82;;;0.82;;
18447;SDS011;9353;50.956;6.920;2022-10-26T12:19:38;0.73;;;0.73;;
18447;SDS011;9353;50.956;6.920;2022-10-26T12:22:10;0.90;;;0.90;;
18447;SDS011;9353;50.956;6.920;2022-10-26T12:24:40;1.23;;;0.90;;
18447;SDS011;9353;50.956;6.920;2022-10-26T12:27:27;0.80;;;0.80;;
18447;SDS011;9353;50.956;6.920;2022-10-26T12:32:48;0.93;;;0.77;;
18447;SDS011;9353;50.956;6.920;2022-10-26T12:35:27;0.90;;;0.80;;
18447;SDS011;9353;50.956;6.920;2022-10-26T12:37:54;1.25;;;0.93;;
18447;SDS011;9353;50.956;6.920;2022-10-26T12:40:38;3.00;;;0.80;;
18447;SDS011;9353;50.956;6.920;2022-10-26T12:48:39;2.20;;;0.88;;
18447;SDS011;9353;50.956;6.920;2022-10-26T12:51:17;1.92;;;0.77;;
18447;SDS011;9353;50.956;6.920;2022-10-26T12:53:48;2.60;;;0.73;;
18447;SDS011;9353;50.956;6.920;2022-10-26T12:56:16;0.65;;;0.40;;
18447;SDS011;9353;50.956;6.920;2022-10-26T13:04:24;0.83;;;0.80;;
18447;SDS011;9353;50.956;6.920;2022-10-26T13:06:56;0.97;;;0.60;;
18447;SDS011;9353;50.956;6.920;2022-10-26T13:09:26;0.93;;;0.85;;
18447;SDS011;9353;50.956;6.920;2022-10-26T13:11:54;1.50;;;0.90;;
18447;SDS011;9353;50.956;6.920;2022-10-26T13:14:22;4.07;;;1.40;;
18447;SDS011;9353;50.956;6.920;2022-10-26T13:16:51;0.70;;;0.70;;
18447;SDS011;9353;50.956;6.920;2022-10-26T13:19:23;1.55;;;1.13;;
18447;SDS011;9353;50.956;6.920;2022-10-26T13:21:50;0.53;;;0.50;;
18447;SDS011;9353;50.956;6.920;2022-10-26T13:24:18;0.70;;;0.70;;
18447;SDS011;9353;50.956;6.920;2022-10-26T13:29:28;1.33;;;1.20;;
18447;SDS011;9353;50.956;6.920;2022-10-26T13:31:55;1.07;;;0.90;;
18447;SDS011;9353;50.956;6.920;2022-10-26T13:34:25;1.40;;;1.00;;
18447;SDS011;9353;50.956;6.920;2022-10-26T13:36:56;0.80;;;0.80;;
18447;SDS011;9353;50.956;6.920;2022-10-26T13:39:26;0.93;;;0.80;;
18447;SDS011;9353;50.956;6.920;2022-10-26T13:41:54;1.17;;;0.73;;
18447;SDS011;9353;50.956;6.920;2022-10-26T13:44:24;1.60;;;0.73;;
18447;SDS011;9353;50.956;6.920;2022-10-26T13:46:54;2.37;;;1.00;;
18447;SDS011;9353;50.956;6.920;2022-10-26T13:49:22;2.60;;;1.00;;
18447;SDS011;9353;50.956;6.920;2022-10-26T13:51:52;0.83;;;0.83;;
18447;SDS011;9353;50.956;6.920;2022-10-26T13:54:21;1.40;;;1.30;;
18447;SDS011;9353;50.956;6.920;2022-10-26T13:56:55;0.90;;;0.90;;
18447;SDS011;9353;50.956;6.920;2022-10-26T13:59:23;1.57;;;1.13;;
18447;SDS011;9353;50.956;6.920;2022-10-26T14:02:04;2.00;;;1.20;;
18447;SDS011;9353;50.956;6.920;2022-10-26T14:04:31;1.43;;;1.33;;
18447;SDS011;9353;50.956;6.920;2022-10-26T14:06:59;1.17;;;0.87;;
18447;SDS011;9353;50.956;6.920;2022-10-26T14:09:26;1.53;;;0.90;;
18447;SDS011;9353;50.956;6.920;2022-10-26T14:11:55;1.37;;;0.70;;
18447;SDS011;9353;50.956;6.920;2022-10-26T14:14:23;1.53;;;0.83;;
18447;SDS011;9353;50.956;6.920;2022-10-26T14:16:51;1.00;;;1.00;;
18447;SDS011;9353;50.956;6.920;2022-10-26T14:19:20;1.60;;;1.17;;
18447;SDS011;9353;50.956;6.920;2022-10-26T14:21:48;1.33;;;0.90;;
18447;SDS011;9353;50.956;6.920;2022-10-26T14:24:20;2.43;;;0.87;;
18447;SDS011;9353;50.956;6.920;2022-10-26T14:26:48;1.27;;;1.13;;
18447;SDS011;9353;50.956;6.920;2022-10-26T14:29:16;1.93;;;0.93;;
18447;SDS011;9353;50.956;6.920;2022-10-26T14:31:44;0.70;;;0.70;;
18447;SDS011;9353;50.956;6.920;2022-10-26T14:34:11;0.80;;;0.80;;
18447;SDS011;9353;50.956;6.920;2022-10-26T14:36:39;1.37;;;1.00;;
18447;SDS011;9353;50.956;6.920;2022-10-26T14:39:10;2.10;;;0.67;;
18447;SDS011;9353;50.956;6.920;2022-10-26T14:41:42;0.93;;;0.70;;
18447;SDS011;9353;50.956;6.920;2022-10-26T14:44:12;2.13;;;0.70;;
18447;SDS011;9353;50.956;6.920;2022-10-26T14:46:41;1.80;;;1.10;;
18447;SDS011;9353;50.956;6.920;2022-10-26T14:49:13;0.87;;;0.87;;
18447;SDS011;9353;50.956;6.920;2022-10-26T14:51:43;1.57;;;0.70;;
18447;SDS011;9353;50.956;6.920;2022-10-26T14:54:17;0.60;;;0.60;;
18447;SDS011;9353;50.956;6.920;2022-10-26T14:56:46;2.60;;;1.07;;
18447;SDS011;9353;50.956;6.920;2022-10-26T14:59:17;1.43;;;0.77;;
18447;SDS011;9353;50.956;6.920;2022-10-26T15:01:46;0.67;;;0.67;;
18447;SDS011;9353;50.956;6.920;2022-10-26T15:04:25;0.77;;;0.77;;
18447;SDS011;9353;50.956;6.920;2022-10-26T15:06:59;1.27;;;0.70;;
18447;SDS011;9353;50.956;6.920;2022-10-26T15:09:28;0.90;;;0.90;;
18447;SDS011;9353;50.956;6.920;2022-10-26T15:11:57;0.53;;;0.53;;
18447;SDS011;9353;50.956;6.920;2022-10-26T15:14:26;0.87;;;0.77;;
18447;SDS011;9353;50.956;6.920;2022-10-26T15:16:54;1.60;;;0.83;;
18447;SDS011;9353;50.956;6.920;2022-10-26T15:19:22;0.80;;;0.80;;
18447;SDS011;9353;50.956;6.920;2022-10-26T15:21:50;1.43;;;0.87;;
18447;SDS011;9353;50.956;6.920;2022-10-26T15:24:31;2.43;;;0.80;;
18447;SDS011;9353;50.956;6.920;2022-10-26T15:27:00;1.20;;;1.07;;
18447;SDS011;9353;50.956;6.920;2022-10-26T15:29:34;1.27;;;1.03;;